Airfield :
LOGIN :

Register | Disclaimer

   EN    FR    IT 

 










Legend :    VFR   Marginal VFR   IFR   Intensive IFR   Very Intensive IFR
Visi :
Ceiling :
>= 8 km
>= 3000ft
5 to 8 km
1000 to 3000 ft
1500m to 5 km
500 to 1000 ft
800 to 1500m
200 to 500 ft
< 800m
< 200 ft
Symbols :   Thunderstorms  Fog  Heavy snow  Heavy precipitations  Wind > 20 kt
SIGMETs :     Misc.  Thunderstorms  Icing  Turbulence  Mountain Waves  Volcanic Ashes






- Airport Elevation : 72 ft
- IATA code : UDE


EHVK - Volkel Airbase

CURRENT METAR :
  • 091958Z AUTO 27003KT 8000 BR NCD M02/M03 Q1007 BLU

EXPIRED METARs :
  • 091925Z AUTO 24004KT 7000 BR NCD M01/M03 Q1007 WHT
  • 090516Z AUTO 14002KT 2000 BR SCT001 BKN002 BKN004 02/01 Q1006 RED
  • 091906Z AUTO 22004KT 8000 BR FEW016 M01/M03 Q1007 BLU
  • 091846Z AUTO 22006KT 7000 BR BKN016 M00/M02 Q1007 WHT
  • 091825Z AUTO 26004KT 9000 BR OVC016 00/M02 Q1007 WHT
  • 091755Z AUTO VRB02KT 9999 OVC015 00/M02 Q1006 WHT
  • 091725Z AUTO VRB02KT 9999 BKN015 M01/M02 Q1006 WHT
  • 091700Z AUTO VRB02KT 9999 BKN015 00/M02 Q1006 WHT

TAF TAF EHVK
Valid from the 09 at 14:00 until the 10 at 02:00 UTC


091339Z 0914/1002 19004KT 9000 SCT010 BKN016
PROB40
TEMPO 0914/0922 4000 BR BKN008
BECMG 0922/0924 4000 BR BKN008
PROB40
TEMPO 0923/1006 0600 FZFG FEW008



MET'MAP, your aeronautical weather chart ! - Copyright ORBIFLY December 2007 - Disclaimer

ORBIFLY MET'MAP TEAM :

Programming & Development : Alexandra Zaïnal
Original concept : Baudouin d'Aumeries
Technical & hardware support : Manuel Goepfert
Assistance : Marc-Olivier Méhu




SOURCES & CREDITS :

   NOAA